Home

PKWA Terminal Aerodrome Forecast (TAF)small logo


TAF provided by NWS Guam
2015/03/04 18:59
TAF PKWA 041759Z 0418/0512 05017G24KT P6SM VCSH SCT018 SCT045 
      TEMPO 0418/0421 -SHRA SCT012 BKN017 OVC030

      



Site Map | Contact Us | Copyright © 2007 Atmospheric Technology Services Company. All rights reserved.